Time,TemperatureF,DewpointF,PressureIn,WindDirection,WindDirectionDegrees,WindSpeedMPH,WindSpeedGustMPH,Humidity,HourlyPrecipIn,Conditions,Clouds,dailyrainin,SoftwareType,DateUTC
2013-05-22 00:02:00,50.8,33.8,30.01,NNW,345,2.0,5.0,52,0.00,,---,0.00,VWS V14.01,2013-05-22 07:02:00,
2013-05-22 00:11:00,50.7,33.2,30.01,NW,326,3.0,5.0,51,0.00,,---,0.00,VWS V14.01,2013-05-22 07:11:00,
2013-05-22 00:21:00,50.8,33.3,30.01,West,266,3.0,4.0,51,0.00,,---,0.00,VWS V14.01,2013-05-22 07:21:00,
2013-05-22 00:32:00,50.8,33.3,30.01,North,350,1.0,9.0,51,0.00,,---,0.00,VWS V14.01,2013-05-22 07:32:00,
2013-05-22 00:41:00,50.6,32.6,30.01,North,349,0.0,3.0,50,0.00,,---,0.00,VWS V14.01,2013-05-22 07:41:00,
2013-05-22 00:52:00,50.7,32.7,30.01,NNW,346,1.0,6.0,50,0.00,,---,0.00,VWS V14.01,2013-05-22 07:52:00,
2013-05-22 01:01:00,50.6,33.1,30.02,NNW,333,2.0,3.0,51,0.00,,---,0.00,VWS V14.01,2013-05-22 08:01:00,
2013-05-22 01:11:00,50.4,32.5,30.02,NNW,329,1.0,3.0,50,0.00,,---,0.00,VWS V14.01,2013-05-22 08:11:00,
2013-05-22 01:21:00,50.1,32.2,30.02,NNW,328,0.0,1.0,50,0.00,,---,0.00,VWS V14.01,2013-05-22 08:21:00,
2013-05-22 01:32:00,49.9,31.5,30.02,NNW,346,0.0,2.0,49,0.00,,---,0.00,VWS V14.01,2013-05-22 08:32:00,
2013-05-22 01:41:00,49.9,31.5,30.02,NNW,346,0.0,2.0,49,0.00,,---,0.00,VWS V14.01,2013-05-22 08:41:00,
2013-05-22 01:51:00,49.7,31.3,30.02,NNW,346,0.0,1.0,49,0.00,,---,0.00,VWS V14.01,2013-05-22 08:51:00,
2013-05-22 02:02:00,49.4,31.0,30.02,NNW,344,0.0,1.0,49,0.00,,---,0.00,VWS V14.01,2013-05-22 09:02:00,
2013-05-22 02:11:00,49.6,30.7,30.02,NNW,336,1.0,3.0,48,0.00,,---,0.00,VWS V14.01,2013-05-22 09:11:00,
2013-05-22 02:21:00,49.4,32.5,30.02,NNW,336,0.0,1.0,52,0.00,,---,0.00,VWS V14.01,2013-05-22 09:21:00,
2013-05-22 02:32:00,49.0,30.7,30.02,NNW,346,2.0,2.0,49,0.00,,---,0.00,VWS V14.01,2013-05-22 09:32:00,
2013-05-22 02:41:00,49.2,30.9,30.02,NNW,333,2.0,3.0,49,0.00,,---,0.00,VWS V14.01,2013-05-22 09:41:00,
2013-05-22 02:51:00,49.2,30.9,30.02,NNW,347,0.0,3.0,49,0.00,,---,0.00,VWS V14.01,2013-05-22 09:51:00,
2013-05-22 03:02:00,49.1,32.2,30.02,North,349,0.0,1.0,52,0.00,,---,0.00,VWS V14.01,2013-05-22 10:02:00,
2013-05-22 03:11:00,48.8,32.0,30.02,NNW,344,0.0,1.0,52,0.00,,---,0.00,VWS V14.01,2013-05-22 10:11:00,
2013-05-22 03:22:00,48.2,32.3,30.02,NW,326,0.0,1.0,54,0.00,,---,0.00,VWS V14.01,2013-05-22 10:22:00,
2013-05-22 03:32:00,48.1,30.8,30.02,NNW,346,0.0,1.0,51,0.00,,---,0.00,VWS V14.01,2013-05-22 10:32:00,
2013-05-22 03:41:00,47.9,32.0,30.03,NNW,346,0.0,0.0,54,0.00,,---,0.00,VWS V14.01,2013-05-22 10:41:00,
2013-05-22 03:51:00,47.9,30.6,30.03,North,349,0.0,3.0,51,0.00,,---,0.00,VWS V14.01,2013-05-22 10:51:00,
2013-05-22 04:02:00,48.3,30.5,30.03,NNW,343,1.0,3.0,50,0.00,,---,0.00,VWS V14.01,2013-05-22 11:02:00,
2013-05-22 04:11:00,47.9,31.1,30.02,NNW,343,0.0,1.0,52,0.00,,---,0.00,VWS V14.01,2013-05-22 11:11:00,
2013-05-22 04:22:00,47.3,31.9,30.02,NNW,343,0.0,1.0,55,0.00,,---,0.00,VWS V14.01,2013-05-22 11:22:00,
2013-05-22 04:32:00,46.8,31.5,30.02,NNW,343,0.0,0.0,55,0.00,,---,0.00,VWS V14.01,2013-05-22 11:32:00,
2013-05-22 04:41:00,46.4,31.5,30.02,NNW,343,0.0,0.0,56,0.00,,---,0.00,VWS V14.01,2013-05-22 11:41:00,
2013-05-22 04:51:00,46.6,31.3,30.02,NNW,343,0.0,0.0,55,0.00,,---,0.00,VWS V14.01,2013-05-22 11:51:00,
2013-05-22 05:01:00,46.4,30.2,30.02,NNW,343,0.0,0.0,53,0.00,,---,0.00,VWS V14.01,2013-05-22 12:01:00,
2013-05-22 05:11:00,45.7,30.9,30.02,NNW,332,0.0,1.0,56,0.00,,---,0.00,VWS V14.01,2013-05-22 12:11:00,
2013-05-22 05:21:00,46.5,30.3,30.02,NNW,330,1.0,2.0,53,0.00,,---,0.00,VWS V14.01,2013-05-22 12:21:00,
2013-05-22 05:31:00,47.2,32.3,30.02,NNW,343,0.0,2.0,56,0.00,,---,0.00,VWS V14.01,2013-05-22 12:31:00,
2013-05-22 05:41:00,46.2,32.2,30.02,East,93,0.0,2.0,58,0.00,,---,0.00,VWS V14.01,2013-05-22 12:41:00,
2013-05-22 05:51:00,45.4,31.9,30.03,East,93,1.0,1.0,59,0.00,,---,0.00,VWS V14.01,2013-05-22 12:51:00,
2013-05-22 06:02:00,45.3,32.6,30.03,NNW,333,0.0,1.0,61,0.00,,---,0.00,VWS V14.01,2013-05-22 13:02:00,
2013-05-22 06:11:00,45.2,31.7,30.03,NNW,333,0.0,1.0,59,0.00,,---,0.00,VWS V14.01,2013-05-22 13:11:00,
2013-05-22 06:21:00,45.1,32.5,30.04,NNW,333,0.0,0.0,61,0.00,,---,0.00,VWS V14.01,2013-05-22 13:21:00,
2013-05-22 06:31:00,45.1,33.2,30.04,NNE,19,0.0,1.0,63,0.00,,---,0.00,VWS V14.01,2013-05-22 13:31:00,
2013-05-22 06:41:00,45.5,32.0,30.04,NNW,329,0.0,1.0,59,0.00,,---,0.00,VWS V14.01,2013-05-22 13:41:00,
2013-05-22 06:51:00,45.9,32.4,30.04,NNW,330,0.0,1.0,59,0.00,,---,0.00,VWS V14.01,2013-05-22 13:51:00,
2013-05-22 07:01:00,46.3,32.8,30.04,NNW,331,0.0,1.0,59,0.00,,---,0.00,VWS V14.01,2013-05-22 14:01:00,
2013-05-22 07:11:00,46.7,34.0,30.04,NNW,330,0.0,0.0,61,0.00,,---,0.00,VWS V14.01,2013-05-22 14:11:00,
2013-05-22 07:21:00,47.1,32.2,30.04,NNW,331,0.0,0.0,56,0.00,,---,0.00,VWS V14.01,2013-05-22 14:21:00,
2013-05-22 07:32:00,47.4,33.4,30.04,NNW,330,0.0,0.0,58,0.00,,---,0.00,VWS V14.01,2013-05-22 14:32:00,
2013-05-22 07:41:00,48.1,32.2,30.04,NNE,19,0.0,1.0,54,0.00,,---,0.00,VWS V14.01,2013-05-22 14:41:00,
2013-05-22 07:51:00,48.6,32.2,30.04,NNE,21,0.0,0.0,53,0.00,,---,0.00,VWS V14.01,2013-05-22 14:51:00,
2013-05-22 08:01:00,48.9,32.5,30.04,North,360,0.0,1.0,53,0.00,,---,0.00,VWS V14.01,2013-05-22 15:01:00,
2013-05-22 08:11:00,49.4,32.5,30.04,North,359,0.0,0.0,52,0.00,,---,0.00,VWS V14.01,2013-05-22 15:11:00,
2013-05-22 08:21:00,50.2,31.8,30.04,NNW,328,0.0,1.0,49,0.00,,---,0.00,VWS V14.01,2013-05-22 15:21:00,
2013-05-22 08:31:00,51.2,31.6,30.04,North,349,0.0,3.0,47,0.00,,---,0.00,VWS V14.01,2013-05-22 15:31:00,
2013-05-22 08:41:00,51.8,32.2,30.04,NNW,328,0.0,3.0,47,0.00,,---,0.00,VWS V14.01,2013-05-22 15:41:00,
2013-05-22 08:51:00,52.1,31.4,30.04,NNW,346,2.0,3.0,45,0.00,,---,0.00,VWS V14.01,2013-05-22 15:51:00,
2013-05-22 09:01:00,52.5,32.3,30.04,North,356,2.0,4.0,46,0.00,,---,0.00,VWS V14.01,2013-05-22 16:01:00,
2013-05-22 09:11:00,52.8,30.9,30.04,NNW,327,3.0,4.0,43,0.00,,---,0.00,VWS V14.01,2013-05-22 16:11:00,
2013-05-22 09:21:00,53.1,30.0,30.04,NNW,335,4.0,6.0,41,0.00,,---,0.00,VWS V14.01,2013-05-22 16:21:00,
2013-05-22 09:32:00,53.3,30.2,30.04,NNW,342,3.0,6.0,41,0.00,,---,0.00,VWS V14.01,2013-05-22 16:32:00,
2013-05-22 09:41:00,53.8,31.2,30.03,NNW,340,0.0,6.0,42,0.00,,---,0.00,VWS V14.01,2013-05-22 16:41:00,
2013-05-22 09:51:00,54.2,31.0,30.03,NNW,340,3.0,3.0,41,0.00,,---,0.00,VWS V14.01,2013-05-22 16:51:00,
2013-05-22 10:02:00,54.5,31.9,30.02,North,9,0.0,5.0,42,0.00,,---,0.00,VWS V14.01,2013-05-22 17:02:00,
2013-05-22 10:11:00,55.0,31.1,30.02,NNW,342,0.0,3.0,40,0.00,,---,0.00,VWS V14.01,2013-05-22 17:11:00,
2013-05-22 10:21:00,55.3,31.4,30.02,NNW,345,0.0,2.0,40,0.00,,---,0.00,VWS V14.01,2013-05-22 17:21:00,
2013-05-22 10:31:00,56.1,32.1,30.02,NNW,333,0.0,4.0,40,0.00,,---,0.00,VWS V14.01,2013-05-22 17:31:00,
2013-05-22 10:41:00,56.6,31.9,30.01,NW,322,3.0,5.0,39,0.00,,---,0.00,VWS V14.01,2013-05-22 17:41:00,
2013-05-22 10:52:00,57.0,31.6,30.01,NW,305,1.0,4.0,38,0.00,,---,0.00,VWS V14.01,2013-05-22 17:52:00,
2013-05-22 11:02:00,57.3,31.2,30.01,NNW,336,1.0,4.0,37,0.00,,---,0.00,VWS V14.01,2013-05-22 18:02:00,
2013-05-22 11:11:00,57.6,32.2,30.01,NNW,335,0.0,4.0,38,0.00,,---,0.00,VWS V14.01,2013-05-22 18:11:00,
2013-05-22 11:22:00,58.1,29.9,30.01,North,351,0.0,2.0,34,0.00,,---,0.00,VWS V14.01,2013-05-22 18:22:00,
2013-05-22 11:31:00,58.8,31.2,30.00,WNW,294,3.0,3.0,35,0.00,,---,0.00,VWS V14.01,2013-05-22 18:31:00,
2013-05-22 11:41:00,60.0,33.6,30.00,NW,316,0.0,3.0,37,0.00,,---,0.00,VWS V14.01,2013-05-22 18:41:00,
2013-05-22 11:52:00,60.3,30.3,29.99,North,3,0.0,1.0,32,0.00,,---,0.00,VWS V14.01,2013-05-22 18:52:00,
2013-05-22 12:02:00,61.1,29.4,29.99,NNW,333,0.0,2.0,30,0.00,,---,0.00,VWS V14.01,2013-05-22 19:02:00,
2013-05-22 12:11:00,61.3,29.6,29.99,NNW,336,1.0,3.0,30,0.00,,---,0.00,VWS V14.01,2013-05-22 19:11:00,
2013-05-22 12:22:00,61.9,31.7,29.98,NNW,327,0.0,2.0,32,0.00,,---,0.00,VWS V14.01,2013-05-22 19:22:00,
2013-05-22 12:32:00,62.5,32.2,29.98,NNE,30,0.0,5.0,32,0.00,,---,0.00,VWS V14.01,2013-05-22 19:32:00,
2013-05-22 12:41:00,62.6,33.8,29.98,NNW,328,0.0,3.0,34,0.00,,---,0.00,VWS V14.01,2013-05-22 19:41:00,
2013-05-22 12:51:00,62.8,38.1,29.97,SSE,147,1.0,5.0,40,0.00,,---,0.00,VWS V14.01,2013-05-22 19:51:00,
2013-05-22 13:02:00,62.6,40.4,29.97,SSE,160,0.0,3.0,44,0.00,,---,0.00,VWS V14.01,2013-05-22 20:02:00,
2013-05-22 13:11:00,62.8,40.6,29.97,East,91,0.0,3.0,44,0.00,,---,0.00,VWS V14.01,2013-05-22 20:11:00,
2013-05-22 13:22:00,63.1,41.4,29.96,SSE,158,5.0,5.0,45,0.00,,---,0.00,VWS V14.01,2013-05-22 20:22:00,
2013-05-22 13:32:00,62.2,40.6,29.96,SSE,155,4.0,5.0,45,0.00,,---,0.00,VWS V14.01,2013-05-22 20:32:00,
2013-05-22 13:41:00,61.9,41.4,29.96,SSE,155,4.0,5.0,47,0.00,,---,0.00,VWS V14.01,2013-05-22 20:41:00,
2013-05-22 13:51:00,62.0,42.6,29.95,SE,145,3.0,6.0,49,0.00,,---,0.00,VWS V14.01,2013-05-22 20:51:00,
2013-05-22 14:02:00,61.6,42.8,29.95,ESE,112,3.0,4.0,50,0.00,,---,0.00,VWS V14.01,2013-05-22 21:02:00,
2013-05-22 14:11:00,61.6,43.3,29.95,East,94,1.0,5.0,51,0.00,,---,0.00,VWS V14.01,2013-05-22 21:11:00,
2013-05-22 14:22:00,61.8,43.5,29.95,SSE,157,2.0,3.0,51,0.00,,---,0.00,VWS V14.01,2013-05-22 21:22:00,
2013-05-22 14:32:00,62.1,44.3,29.94,ESE,112,1.0,3.0,52,0.00,,---,0.00,VWS V14.01,2013-05-22 21:32:00,
2013-05-22 14:41:00,62.6,43.7,29.94,SSW,210,1.0,4.0,50,0.00,,---,0.00,VWS V14.01,2013-05-22 21:41:00,
2013-05-22 14:51:00,63.2,44.2,29.94,WNW,293,0.0,2.0,50,0.00,,---,0.00,VWS V14.01,2013-05-22 21:51:00,
2013-05-22 15:02:00,63.3,43.8,29.94,SE,138,0.0,4.0,49,0.00,,---,0.00,VWS V14.01,2013-05-22 22:02:00,
2013-05-22 15:11:00,63.7,44.7,29.94,SSW,196,1.0,3.0,50,0.00,,---,0.00,VWS V14.01,2013-05-22 22:11:00,
2013-05-22 15:22:00,63.8,44.3,29.94,ENE,72,1.0,2.0,49,0.00,,---,0.00,VWS V14.01,2013-05-22 22:22:00,
2013-05-22 15:32:00,63.9,43.8,29.93,WNW,302,0.0,2.0,48,0.00,,---,0.00,VWS V14.01,2013-05-22 22:32:00,
2013-05-22 15:41:00,63.5,43.5,29.93,North,11,0.0,4.0,48,0.00,,---,0.00,VWS V14.01,2013-05-22 22:41:00,
2013-05-22 15:52:00,63.3,41.6,29.93,WNW,294,0.0,2.0,45,0.00,,---,0.00,VWS V14.01,2013-05-22 22:52:00,
2013-05-22 16:02:00,63.0,42.5,29.93,North,6,0.0,6.0,47,0.00,,---,0.00,VWS V14.01,2013-05-22 23:02:00,
2013-05-22 16:11:00,62.9,41.8,29.93,SE,128,0.0,4.0,46,0.00,,---,0.00,VWS V14.01,2013-05-22 23:11:00,
2013-05-22 16:21:00,62.7,41.6,29.93,North,349,0.0,5.0,46,0.00,,---,0.00,VWS V14.01,2013-05-22 23:21:00,
2013-05-22 16:26:00,62.6,41.5,29.93,West,273,0.0,3.0,46,0.00,,---,0.00,VWS V14.01,2013-05-22 23:26:00,
2013-05-22 16:31:00,62.5,41.4,29.93,NW,315,2.0,4.0,46,0.00,,---,0.00,VWS V14.01,2013-05-22 23:31:00,
2013-05-22 16:41:00,62.3,41.2,29.92,NNW,339,0.0,4.0,46,0.00,,---,0.00,VWS V14.01,2013-05-22 23:41:00,
2013-05-22 16:51:00,62.1,41.6,29.93,NW,318,0.0,3.0,47,0.00,,---,0.00,VWS V14.01,2013-05-22 23:51:00,
2013-05-22 16:57:00,62.0,41.5,29.92,ESE,102,1.0,2.0,47,0.00,,---,0.00,VWS V14.01,2013-05-22 23:57:00,
2013-05-22 17:02:00,62.0,42.1,29.92,NNW,340,0.0,3.0,48,0.00,,---,0.00,VWS V14.01,2013-05-23 00:02:00,
2013-05-22 17:11:00,61.7,42.3,29.92,NW,305,1.0,4.0,49,0.00,,---,0.00,VWS V14.01,2013-05-23 00:11:00,
2013-05-22 17:21:00,61.3,41.4,29.92,ESE,116,1.0,4.0,48,0.00,,---,0.00,VWS V14.01,2013-05-23 00:21:00,
2013-05-22 17:27:00,61.3,42.0,29.92,NE,34,0.0,2.0,49,0.00,,---,0.00,VWS V14.01,2013-05-23 00:27:00,
2013-05-22 17:41:00,61.1,41.8,29.91,NNW,328,0.0,3.0,49,0.00,,---,0.00,VWS V14.01,2013-05-23 00:41:00,
2013-05-22 17:52:00,61.1,41.8,29.91,NW,316,0.0,3.0,49,0.00,,---,0.00,VWS V14.01,2013-05-23 00:52:00,
2013-05-22 17:57:00,60.9,42.6,29.91,NNW,343,0.0,2.0,51,0.00,,---,0.00,VWS V14.01,2013-05-23 00:57:00,
2013-05-22 18:11:00,60.3,42.1,29.91,South,179,0.0,3.0,51,0.00,,---,0.00,VWS V14.01,2013-05-23 01:11:00,
2013-05-22 18:21:00,59.6,42.4,29.91,SSE,157,0.0,3.0,53,0.00,,---,0.00,VWS V14.01,2013-05-23 01:21:00,
2013-05-22 18:27:00,59.5,42.8,29.91,SSW,196,0.0,2.0,54,0.00,,---,0.00,VWS V14.01,2013-05-23 01:27:00,
2013-05-22 18:41:00,59.3,41.7,29.92,WNW,293,0.0,4.0,52,0.00,,---,0.00,VWS V14.01,2013-05-23 01:41:00,
2013-05-22 18:51:00,59.2,41.6,29.91,WNW,291,0.0,3.0,52,0.00,,---,0.00,VWS V14.01,2013-05-23 01:51:00,
2013-05-22 18:57:00,59.1,41.5,29.92,NNW,346,0.0,3.0,52,0.00,,---,0.00,VWS V14.01,2013-05-23 01:57:00,
2013-05-22 19:11:00,58.8,40.7,29.92,NW,321,0.0,2.0,51,0.00,,---,0.00,VWS V14.01,2013-05-23 02:11:00,
2013-05-22 19:22:00,58.4,40.3,29.92,NNW,329,0.0,4.0,51,0.00,,---,0.00,VWS V14.01,2013-05-23 02:22:00,
2013-05-22 19:27:00,58.2,40.7,29.92,WNW,302,0.0,1.0,52,0.00,,---,0.00,VWS V14.01,2013-05-23 02:27:00,
2013-05-22 19:41:00,57.7,41.6,29.92,WNW,288,2.0,2.0,55,0.00,,---,0.00,VWS V14.01,2013-05-23 02:41:00,
2013-05-22 19:52:00,57.5,40.0,29.92,NW,315,0.0,3.0,52,0.00,,---,0.00,VWS V14.01,2013-05-23 02:52:00,
2013-05-22 19:57:00,57.4,39.9,29.92,NW,319,0.0,0.0,52,0.00,,---,0.00,VWS V14.01,2013-05-23 02:57:00,
2013-05-22 20:11:00,56.9,40.4,29.92,NW,306,1.0,2.0,54,0.00,,---,0.00,VWS V14.01,2013-05-23 03:11:00,
2013-05-22 20:21:00,56.5,40.0,29.92,East,91,0.0,3.0,54,0.00,,---,0.00,VWS V14.01,2013-05-23 03:21:00,
2013-05-22 20:27:00,56.3,39.9,29.92,NW,308,0.0,0.0,54,0.00,,---,0.00,VWS V14.01,2013-05-23 03:27:00,
2013-05-22 20:41:00,55.7,40.2,29.92,WNW,302,0.0,1.0,56,0.00,,---,0.00,VWS V14.01,2013-05-23 03:41:00,
2013-05-22 20:52:00,55.2,40.2,29.92,NW,316,0.0,1.0,57,0.00,,---,0.00,VWS V14.01,2013-05-23 03:52:00,
2013-05-22 20:57:00,55.1,40.1,29.92,NW,305,2.0,2.0,57,0.00,,---,0.00,VWS V14.01,2013-05-23 03:57:00,
2013-05-22 21:01:00,54.9,40.4,29.93,NW,316,0.0,2.0,58,0.00,,---,0.00,VWS V14.01,2013-05-23 04:01:00,
2013-05-22 21:12:00,54.5,40.0,29.93,North,349,0.0,2.0,58,0.00,,---,0.00,VWS V14.01,2013-05-23 04:12:00,
2013-05-22 21:21:00,54.2,40.2,29.93,WNW,286,1.0,5.0,59,0.00,,---,0.00,VWS V14.01,2013-05-23 04:21:00,
2013-05-22 21:27:00,54.0,40.0,29.93,NW,308,1.0,1.0,59,0.00,,---,0.00,VWS V14.01,2013-05-23 04:27:00,
2013-05-22 21:41:00,53.7,40.6,29.93,NNW,347,0.0,2.0,61,0.00,,---,0.00,VWS V14.01,2013-05-23 04:41:00,
2013-05-22 21:52:00,53.4,40.3,29.93,WNW,293,1.0,4.0,61,0.00,,---,0.00,VWS V14.01,2013-05-23 04:52:00,
2013-05-22 21:57:00,53.3,40.2,29.93,North,354,0.0,2.0,61,0.00,,---,0.00,VWS V14.01,2013-05-23 04:57:00,
2013-05-22 22:12:00,53.0,40.3,29.94,WNW,291,0.0,3.0,62,0.00,,---,0.00,VWS V14.01,2013-05-23 05:12:00,
2013-05-22 22:22:00,52.8,40.5,29.93,NE,48,0.0,2.0,63,0.00,,---,0.00,VWS V14.01,2013-05-23 05:22:00,
2013-05-22 22:27:00,52.6,40.4,29.93,NNW,335,0.0,1.0,63,0.00,,---,0.00,VWS V14.01,2013-05-23 05:27:00,
2013-05-22 22:41:00,52.3,40.1,29.93,North,349,0.0,2.0,63,0.00,,---,0.00,VWS V14.01,2013-05-23 05:41:00,
2013-05-22 22:52:00,52.2,40.4,29.93,NNE,28,0.0,1.0,64,0.00,,---,0.00,VWS V14.01,2013-05-23 05:52:00,
2013-05-22 22:57:00,52.1,40.3,29.93,NW,318,2.0,4.0,64,0.00,,---,0.00,VWS V14.01,2013-05-23 05:57:00,
2013-05-22 23:11:00,51.8,40.4,29.93,North,3,0.0,1.0,65,0.00,,---,0.00,VWS V14.01,2013-05-23 06:11:00,
2013-05-22 23:21:00,51.6,40.6,29.93,NW,322,0.0,2.0,66,0.00,,---,0.00,VWS V14.01,2013-05-23 06:21:00,
2013-05-22 23:27:00,51.6,40.6,29.93,ENE,77,0.0,3.0,66,0.00,,---,0.00,VWS V14.01,2013-05-23 06:27:00,
2013-05-22 23:41:00,51.5,40.5,29.92,WNW,294,1.0,3.0,66,0.00,,---,0.00,VWS V14.01,2013-05-23 06:41:00,
2013-05-22 23:52:00,51.4,40.4,29.92,NW,305,0.0,5.0,66,0.00,,---,0.00,VWS V14.01,2013-05-23 06:52:00,
2013-05-22 23:57:00,51.2,40.2,29.92,WNW,296,0.0,1.0,66,0.00,,---,0.00,VWS V14.01,2013-05-23 06:57:00,